sensor_id;sensor_type;location;lat;lon;timestamp;P1;durP1;ratioP1;P2;durP2;ratioP2
15114;SDS011;7658;51.456;7.622;2022-12-05T00:02:12;42.70;;;26.20;;
15114;SDS011;7658;51.456;7.622;2022-12-05T00:04:37;35.63;;;24.00;;
15114;SDS011;7658;51.456;7.622;2022-12-05T00:07:03;43.60;;;28.07;;
15114;SDS011;7658;51.456;7.622;2022-12-05T00:09:29;43.10;;;26.63;;
15114;SDS011;7658;51.456;7.622;2022-12-05T00:11:54;45.53;;;26.80;;
15114;SDS011;7658;51.456;7.622;2022-12-05T00:14:20;40.87;;;26.03;;
15114;SDS011;7658;51.456;7.622;2022-12-05T00:16:46;41.47;;;25.90;;
15114;SDS011;7658;51.456;7.622;2022-12-05T00:19:12;40.23;;;26.27;;
15114;SDS011;7658;51.456;7.622;2022-12-05T00:21:39;40.27;;;25.50;;
15114;SDS011;7658;51.456;7.622;2022-12-05T00:24:06;42.00;;;28.17;;
15114;SDS011;7658;51.456;7.622;2022-12-05T00:26:33;42.40;;;27.33;;
15114;SDS011;7658;51.456;7.622;2022-12-05T00:28:59;36.17;;;24.87;;
15114;SDS011;7658;51.456;7.622;2022-12-05T00:31:26;41.70;;;26.63;;
15114;SDS011;7658;51.456;7.622;2022-12-05T00:33:52;42.20;;;26.60;;
15114;SDS011;7658;51.456;7.622;2022-12-05T00:36:20;44.70;;;25.37;;
15114;SDS011;7658;51.456;7.622;2022-12-05T00:38:47;38.20;;;26.00;;
15114;SDS011;7658;51.456;7.622;2022-12-05T00:41:15;45.13;;;27.43;;
15114;SDS011;7658;51.456;7.622;2022-12-05T00:43:43;46.13;;;25.80;;
15114;SDS011;7658;51.456;7.622;2022-12-05T00:46:10;40.13;;;26.20;;
15114;SDS011;7658;51.456;7.622;2022-12-05T00:48:38;39.70;;;25.30;;
15114;SDS011;7658;51.456;7.622;2022-12-05T00:51:14;43.27;;;26.70;;
15114;SDS011;7658;51.456;7.622;2022-12-05T00:53:48;46.43;;;27.40;;
15114;SDS011;7658;51.456;7.622;2022-12-05T00:56:18;43.70;;;24.87;;
15114;SDS011;7658;51.456;7.622;2022-12-05T00:58:46;44.47;;;26.47;;
15114;SDS011;7658;51.456;7.622;2022-12-05T01:01:14;38.73;;;25.00;;
15114;SDS011;7658;51.456;7.622;2022-12-05T01:03:41;40.40;;;25.10;;
15114;SDS011;7658;51.456;7.622;2022-12-05T01:06:07;38.47;;;25.30;;
15114;SDS011;7658;51.456;7.622;2022-12-05T01:08:33;41.70;;;26.03;;
15114;SDS011;7658;51.456;7.622;2022-12-05T01:10:59;46.83;;;27.43;;
15114;SDS011;7658;51.456;7.622;2022-12-05T01:13:26;41.13;;;25.97;;
15114;SDS011;7658;51.456;7.622;2022-12-05T01:15:52;39.67;;;26.53;;
15114;SDS011;7658;51.456;7.622;2022-12-05T01:18:19;45.00;;;27.03;;
15114;SDS011;7658;51.456;7.622;2022-12-05T01:20:45;45.87;;;27.23;;
15114;SDS011;7658;51.456;7.622;2022-12-05T01:23:11;41.17;;;27.20;;
15114;SDS011;7658;51.456;7.622;2022-12-05T01:25:40;46.90;;;27.40;;
15114;SDS011;7658;51.456;7.622;2022-12-05T01:28:08;41.63;;;25.70;;
15114;SDS011;7658;51.456;7.622;2022-12-05T01:30:40;42.67;;;26.10;;
15114;SDS011;7658;51.456;7.622;2022-12-05T01:33:07;43.03;;;25.00;;
15114;SDS011;7658;51.456;7.622;2022-12-05T01:35:34;41.43;;;25.63;;
15114;SDS011;7658;51.456;7.622;2022-12-05T01:38:01;36.33;;;26.10;;
15114;SDS011;7658;51.456;7.622;2022-12-05T01:40:27;37.63;;;24.40;;
15114;SDS011;7658;51.456;7.622;2022-12-05T01:42:53;43.33;;;25.93;;
15114;SDS011;7658;51.456;7.622;2022-12-05T01:45:38;41.80;;;24.30;;
15114;SDS011;7658;51.456;7.622;2022-12-05T01:48:15;46.43;;;25.53;;
15114;SDS011;7658;51.456;7.622;2022-12-05T01:50:44;38.40;;;25.37;;
15114;SDS011;7658;51.456;7.622;2022-12-05T01:53:10;42.70;;;25.57;;
15114;SDS011;7658;51.456;7.622;2022-12-05T01:55:36;42.83;;;25.73;;
15114;SDS011;7658;51.456;7.622;2022-12-05T01:58:03;36.67;;;24.70;;
15114;SDS011;7658;51.456;7.622;2022-12-05T02:00:30;41.73;;;25.23;;
15114;SDS011;7658;51.456;7.622;2022-12-05T02:02:58;34.20;;;23.83;;
15114;SDS011;7658;51.456;7.622;2022-12-05T02:05:33;37.33;;;24.50;;
15114;SDS011;7658;51.456;7.622;2022-12-05T02:08:02;43.27;;;25.50;;
15114;SDS011;7658;51.456;7.622;2022-12-05T02:10:32;38.47;;;23.43;;
15114;SDS011;7658;51.456;7.622;2022-12-05T02:15:54;39.37;;;24.90;;
15114;SDS011;7658;51.456;7.622;2022-12-05T02:29:17;44.27;;;26.07;;
15114;SDS011;7658;51.456;7.622;2022-12-05T02:32:03;42.80;;;25.90;;
15114;SDS011;7658;51.456;7.622;2022-12-05T02:34:54;42.70;;;25.77;;
15114;SDS011;7658;51.456;7.622;2022-12-05T02:37:50;42.93;;;25.23;;
15114;SDS011;7658;51.456;7.622;2022-12-05T02:46:25;35.70;;;23.60;;
15114;SDS011;7658;51.456;7.622;2022-12-05T02:48:53;38.20;;;24.10;;
15114;SDS011;7658;51.456;7.622;2022-12-05T02:51:24;38.50;;;25.60;;
15114;SDS011;7658;51.456;7.622;2022-12-05T02:53:58;38.63;;;24.20;;
15114;SDS011;7658;51.456;7.622;2022-12-05T02:56:28;42.00;;;25.30;;
15114;SDS011;7658;51.456;7.622;2022-12-05T02:58:55;40.57;;;24.13;;
15114;SDS011;7658;51.456;7.622;2022-12-05T03:01:22;40.20;;;24.10;;
15114;SDS011;7658;51.456;7.622;2022-12-05T03:03:51;40.43;;;25.20;;
15114;SDS011;7658;51.456;7.622;2022-12-05T03:06:36;39.53;;;25.37;;
15114;SDS011;7658;51.456;7.622;2022-12-05T03:14:43;42.20;;;25.30;;
15114;SDS011;7658;51.456;7.622;2022-12-05T03:17:28;39.40;;;23.50;;
15114;SDS011;7658;51.456;7.622;2022-12-05T03:19:58;44.13;;;27.00;;
15114;SDS011;7658;51.456;7.622;2022-12-05T03:22:41;41.00;;;25.50;;
15114;SDS011;7658;51.456;7.622;2022-12-05T03:25:12;36.67;;;23.40;;
15114;SDS011;7658;51.456;7.622;2022-12-05T03:30:21;39.33;;;26.40;;
15114;SDS011;7658;51.456;7.622;2022-12-05T03:32:49;40.67;;;24.03;;
15114;SDS011;7658;51.456;7.622;2022-12-05T03:35:36;38.97;;;24.53;;
15114;SDS011;7658;51.456;7.622;2022-12-05T03:40:48;40.57;;;26.20;;
15114;SDS011;7658;51.456;7.622;2022-12-05T03:48:53;37.80;;;23.57;;
15114;SDS011;7658;51.456;7.622;2022-12-05T03:51:44;41.30;;;24.83;;
15114;SDS011;7658;51.456;7.622;2022-12-05T03:57:00;39.30;;;24.43;;
15114;SDS011;7658;51.456;7.622;2022-12-05T04:02:26;44.47;;;25.90;;
15114;SDS011;7658;51.456;7.622;2022-12-05T04:05:11;36.50;;;25.13;;
15114;SDS011;7658;51.456;7.622;2022-12-05T04:07:43;34.83;;;23.20;;
15114;SDS011;7658;51.456;7.622;2022-12-05T04:10:14;37.43;;;23.50;;
15114;SDS011;7658;51.456;7.622;2022-12-05T04:12:44;34.57;;;24.07;;
15114;SDS011;7658;51.456;7.622;2022-12-05T04:15:19;32.60;;;22.40;;
15114;SDS011;7658;51.456;7.622;2022-12-05T04:18:13;38.60;;;24.67;;
15114;SDS011;7658;51.456;7.622;2022-12-05T04:20:43;38.37;;;23.63;;
15114;SDS011;7658;51.456;7.622;2022-12-05T04:23:28;35.87;;;22.47;;
15114;SDS011;7658;51.456;7.622;2022-12-05T04:28:56;35.57;;;23.63;;
15114;SDS011;7658;51.456;7.622;2022-12-05T04:31:31;31.17;;;22.40;;
15114;SDS011;7658;51.456;7.622;2022-12-05T04:34:04;35.83;;;23.73;;
15114;SDS011;7658;51.456;7.622;2022-12-05T04:36:33;35.50;;;23.60;;
15114;SDS011;7658;51.456;7.622;2022-12-05T04:39:24;34.17;;;22.00;;
15114;SDS011;7658;51.456;7.622;2022-12-05T04:42:17;34.07;;;22.97;;
15114;SDS011;7658;51.456;7.622;2022-12-05T04:44:45;33.93;;;22.83;;
15114;SDS011;7658;51.456;7.622;2022-12-05T04:47:18;36.30;;;22.10;;
15114;SDS011;7658;51.456;7.622;2022-12-05T04:49:50;31.67;;;21.40;;
15114;SDS011;7658;51.456;7.622;2022-12-05T04:52:17;32.63;;;21.90;;
15114;SDS011;7658;51.456;7.622;2022-12-05T04:54:50;35.60;;;22.10;;
15114;SDS011;7658;51.456;7.622;2022-12-05T04:57:23;32.43;;;20.70;;
15114;SDS011;7658;51.456;7.622;2022-12-05T04:59:59;33.83;;;21.20;;
15114;SDS011;7658;51.456;7.622;2022-12-05T05:02:32;37.20;;;22.43;;
15114;SDS011;7658;51.456;7.622;2022-12-05T05:05:07;30.07;;;21.70;;
15114;SDS011;7658;51.456;7.622;2022-12-05T05:07:43;29.53;;;20.13;;
15114;SDS011;7658;51.456;7.622;2022-12-05T05:10:14;30.90;;;21.07;;
15114;SDS011;7658;51.456;7.622;2022-12-05T05:12:44;28.33;;;20.63;;
15114;SDS011;7658;51.456;7.622;2022-12-05T05:15:10;34.97;;;22.03;;
15114;SDS011;7658;51.456;7.622;2022-12-05T05:17:36;29.50;;;21.07;;
15114;SDS011;7658;51.456;7.622;2022-12-05T05:20:02;30.90;;;21.13;;
15114;SDS011;7658;51.456;7.622;2022-12-05T05:22:48;30.23;;;20.50;;
15114;SDS011;7658;51.456;7.622;2022-12-05T05:25:18;30.67;;;21.83;;
15114;SDS011;7658;51.456;7.622;2022-12-05T05:27:49;37.87;;;22.27;;
15114;SDS011;7658;51.456;7.622;2022-12-05T05:30:16;29.33;;;21.10;;
15114;SDS011;7658;51.456;7.622;2022-12-05T05:32:42;33.53;;;21.10;;
15114;SDS011;7658;51.456;7.622;2022-12-05T05:35:08;33.10;;;21.97;;
15114;SDS011;7658;51.456;7.622;2022-12-05T05:37:34;31.67;;;20.80;;
15114;SDS011;7658;51.456;7.622;2022-12-05T05:40:00;33.20;;;19.80;;
15114;SDS011;7658;51.456;7.622;2022-12-05T05:42:25;32.03;;;21.27;;
15114;SDS011;7658;51.456;7.622;2022-12-05T05:44:51;30.07;;;19.20;;
15114;SDS011;7658;51.456;7.622;2022-12-05T05:47:17;26.30;;;19.43;;
15114;SDS011;7658;51.456;7.622;2022-12-05T05:49:42;29.50;;;20.33;;
15114;SDS011;7658;51.456;7.622;2022-12-05T05:52:08;29.20;;;20.37;;
15114;SDS011;7658;51.456;7.622;2022-12-05T05:54:34;33.53;;;22.13;;
15114;SDS011;7658;51.456;7.622;2022-12-05T05:56:59;32.53;;;20.63;;
15114;SDS011;7658;51.456;7.622;2022-12-05T05:59:25;29.37;;;19.27;;
15114;SDS011;7658;51.456;7.622;2022-12-05T06:01:51;29.00;;;20.10;;
15114;SDS011;7658;51.456;7.622;2022-12-05T06:04:16;29.83;;;19.63;;
15114;SDS011;7658;51.456;7.622;2022-12-05T06:06:42;32.37;;;19.73;;
15114;SDS011;7658;51.456;7.622;2022-12-05T06:09:08;26.67;;;18.97;;
15114;SDS011;7658;51.456;7.622;2022-12-05T06:11:33;27.67;;;19.40;;
15114;SDS011;7658;51.456;7.622;2022-12-05T06:13:59;33.63;;;20.63;;
15114;SDS011;7658;51.456;7.622;2022-12-05T06:16:26;27.57;;;19.43;;
15114;SDS011;7658;51.456;7.622;2022-12-05T06:18:52;27.17;;;19.53;;
15114;SDS011;7658;51.456;7.622;2022-12-05T06:21:18;30.00;;;19.50;;
15114;SDS011;7658;51.456;7.622;2022-12-05T06:23:45;34.63;;;20.87;;
15114;SDS011;7658;51.456;7.622;2022-12-05T06:26:12;27.30;;;19.83;;
15114;SDS011;7658;51.456;7.622;2022-12-05T06:28:40;33.30;;;19.67;;
15114;SDS011;7658;51.456;7.622;2022-12-05T06:31:10;30.57;;;19.17;;
15114;SDS011;7658;51.456;7.622;2022-12-05T06:33:38;28.47;;;19.73;;
15114;SDS011;7658;51.456;7.622;2022-12-05T06:36:04;29.23;;;18.93;;
15114;SDS011;7658;51.456;7.622;2022-12-05T06:38:35;29.33;;;20.03;;
15114;SDS011;7658;51.456;7.622;2022-12-05T06:41:03;29.03;;;19.97;;
15114;SDS011;7658;51.456;7.622;2022-12-05T06:43:30;27.97;;;19.40;;
15114;SDS011;7658;51.456;7.622;2022-12-05T06:45:56;26.63;;;18.33;;
15114;SDS011;7658;51.456;7.622;2022-12-05T06:48:22;28.93;;;19.67;;
15114;SDS011;7658;51.456;7.622;2022-12-05T06:50:48;28.17;;;18.10;;
15114;SDS011;7658;51.456;7.622;2022-12-05T06:53:15;29.53;;;19.03;;
15114;SDS011;7658;51.456;7.622;2022-12-05T06:55:41;26.40;;;18.40;;
15114;SDS011;7658;51.456;7.622;2022-12-05T06:58:07;24.33;;;18.27;;
15114;SDS011;7658;51.456;7.622;2022-12-05T07:00:32;25.17;;;19.03;;
15114;SDS011;7658;51.456;7.622;2022-12-05T07:03:17;22.43;;;17.80;;
15114;SDS011;7658;51.456;7.622;2022-12-05T07:05:42;26.83;;;17.87;;
15114;SDS011;7658;51.456;7.622;2022-12-05T07:08:08;27.37;;;18.93;;
15114;SDS011;7658;51.456;7.622;2022-12-05T07:10:34;22.03;;;17.23;;
15114;SDS011;7658;51.456;7.622;2022-12-05T07:12:59;26.37;;;17.30;;
15114;SDS011;7658;51.456;7.622;2022-12-05T07:15:25;20.90;;;16.37;;
15114;SDS011;7658;51.456;7.622;2022-12-05T07:17:51;21.67;;;16.83;;
15114;SDS011;7658;51.456;7.622;2022-12-05T07:20:16;24.73;;;17.50;;
15114;SDS011;7658;51.456;7.622;2022-12-05T07:22:42;23.40;;;15.97;;
15114;SDS011;7658;51.456;7.622;2022-12-05T07:25:09;23.13;;;16.70;;
15114;SDS011;7658;51.456;7.622;2022-12-05T07:27:35;18.83;;;15.50;;
15114;SDS011;7658;51.456;7.622;2022-12-05T07:30:01;24.90;;;16.07;;
15114;SDS011;7658;51.456;7.622;2022-12-05T07:32:30;21.23;;;16.07;;
15114;SDS011;7658;51.456;7.622;2022-12-05T07:34:57;20.77;;;16.07;;
15114;SDS011;7658;51.456;7.622;2022-12-05T07:37:23;17.90;;;15.03;;
15114;SDS011;7658;51.456;7.622;2022-12-05T07:39:50;19.50;;;15.93;;
15114;SDS011;7658;51.456;7.622;2022-12-05T07:42:18;20.13;;;16.00;;
15114;SDS011;7658;51.456;7.622;2022-12-05T07:44:44;19.30;;;15.37;;
15114;SDS011;7658;51.456;7.622;2022-12-05T07:47:10;21.63;;;16.17;;
15114;SDS011;7658;51.456;7.622;2022-12-05T07:49:35;18.27;;;16.13;;
15114;SDS011;7658;51.456;7.622;2022-12-05T07:52:01;20.00;;;15.10;;
15114;SDS011;7658;51.456;7.622;2022-12-05T07:54:27;19.40;;;15.63;;
15114;SDS011;7658;51.456;7.622;2022-12-05T07:56:53;19.97;;;15.90;;
15114;SDS011;7658;51.456;7.622;2022-12-05T07:59:18;20.23;;;16.43;;
15114;SDS011;7658;51.456;7.622;2022-12-05T08:01:44;19.23;;;16.33;;
15114;SDS011;7658;51.456;7.622;2022-12-05T08:04:10;18.20;;;16.30;;
15114;SDS011;7658;51.456;7.622;2022-12-05T08:06:36;17.03;;;14.43;;
15114;SDS011;7658;51.456;7.622;2022-12-05T08:09:02;17.37;;;14.97;;
15114;SDS011;7658;51.456;7.622;2022-12-05T08:11:29;16.40;;;14.70;;
15114;SDS011;7658;51.456;7.622;2022-12-05T08:13:59;17.13;;;14.53;;
15114;SDS011;7658;51.456;7.622;2022-12-05T08:16:26;15.47;;;13.97;;
15114;SDS011;7658;51.456;7.622;2022-12-05T08:19:00;16.23;;;14.53;;
15114;SDS011;7658;51.456;7.622;2022-12-05T08:21:28;16.83;;;15.03;;
15114;SDS011;7658;51.456;7.622;2022-12-05T08:23:55;16.00;;;14.37;;
15114;SDS011;7658;51.456;7.622;2022-12-05T08:26:22;15.87;;;13.83;;
15114;SDS011;7658;51.456;7.622;2022-12-05T08:28:51;16.60;;;14.90;;
15114;SDS011;7658;51.456;7.622;2022-12-05T08:31:18;16.73;;;14.30;;
15114;SDS011;7658;51.456;7.622;2022-12-05T08:33:47;15.03;;;13.37;;
15114;SDS011;7658;51.456;7.622;2022-12-05T08:36:14;16.60;;;14.87;;
15114;SDS011;7658;51.456;7.622;2022-12-05T08:38:41;17.07;;;15.33;;
15114;SDS011;7658;51.456;7.622;2022-12-05T08:41:08;18.57;;;14.87;;
15114;SDS011;7658;51.456;7.622;2022-12-05T08:43:36;18.87;;;16.03;;
15114;SDS011;7658;51.456;7.622;2022-12-05T08:46:02;19.97;;;17.40;;
15114;SDS011;7658;51.456;7.622;2022-12-05T08:48:29;18.43;;;16.13;;
15114;SDS011;7658;51.456;7.622;2022-12-05T08:50:58;20.03;;;16.73;;
15114;SDS011;7658;51.456;7.622;2022-12-05T08:53:28;22.43;;;16.27;;
15114;SDS011;7658;51.456;7.622;2022-12-05T08:55:54;20.10;;;16.30;;
15114;SDS011;7658;51.456;7.622;2022-12-05T08:58:20;16.67;;;14.97;;
15114;SDS011;7658;51.456;7.622;2022-12-05T09:00:45;24.33;;;17.70;;
15114;SDS011;7658;51.456;7.622;2022-12-05T09:03:11;23.53;;;18.60;;
15114;SDS011;7658;51.456;7.622;2022-12-05T09:05:37;21.47;;;16.33;;
15114;SDS011;7658;51.456;7.622;2022-12-05T09:08:03;19.77;;;16.90;;
15114;SDS011;7658;51.456;7.622;2022-12-05T09:10:29;18.10;;;16.17;;
15114;SDS011;7658;51.456;7.622;2022-12-05T09:12:55;19.57;;;16.50;;
15114;SDS011;7658;51.456;7.622;2022-12-05T09:15:20;19.00;;;16.53;;
15114;SDS011;7658;51.456;7.622;2022-12-05T09:17:46;21.73;;;16.73;;
15114;SDS011;7658;51.456;7.622;2022-12-05T09:20:12;20.10;;;16.57;;
15114;SDS011;7658;51.456;7.622;2022-12-05T09:22:39;18.33;;;15.60;;
15114;SDS011;7658;51.456;7.622;2022-12-05T09:25:05;18.87;;;16.27;;
15114;SDS011;7658;51.456;7.622;2022-12-05T09:27:32;17.53;;;15.60;;
15114;SDS011;7658;51.456;7.622;2022-12-05T09:29:57;19.73;;;16.67;;
15114;SDS011;7658;51.456;7.622;2022-12-05T09:32:23;20.90;;;17.27;;
15114;SDS011;7658;51.456;7.622;2022-12-05T09:34:49;19.77;;;16.33;;
15114;SDS011;7658;51.456;7.622;2022-12-05T09:37:15;19.93;;;16.80;;
15114;SDS011;7658;51.456;7.622;2022-12-05T09:39:45;20.23;;;16.60;;
15114;SDS011;7658;51.456;7.622;2022-12-05T09:42:21;18.33;;;15.13;;
15114;SDS011;7658;51.456;7.622;2022-12-05T09:45:17;18.33;;;15.50;;
15114;SDS011;7658;51.456;7.622;2022-12-05T09:47:48;17.10;;;15.10;;
15114;SDS011;7658;51.456;7.622;2022-12-05T09:50:43;16.97;;;15.17;;
15114;SDS011;7658;51.456;7.622;2022-12-05T09:56:08;16.93;;;15.07;;
15114;SDS011;7658;51.456;7.622;2022-12-05T09:58:45;15.33;;;13.73;;
15114;SDS011;7658;51.456;7.622;2022-12-05T10:15:59;17.13;;;15.13;;
15114;SDS011;7658;51.456;7.622;2022-12-05T10:18:34;17.70;;;15.80;;
15114;SDS011;7658;51.456;7.622;2022-12-05T10:23:58;19.27;;;16.03;;
15114;SDS011;7658;51.456;7.622;2022-12-05T10:26:35;17.70;;;15.80;;
15114;SDS011;7658;51.456;7.622;2022-12-05T10:31:53;21.60;;;18.03;;
15114;SDS011;7658;51.456;7.622;2022-12-05T10:34:30;19.00;;;17.00;;
15114;SDS011;7658;51.456;7.622;2022-12-05T10:37:10;21.67;;;17.23;;
15114;SDS011;7658;51.456;7.622;2022-12-05T10:39:40;17.67;;;15.90;;
15114;SDS011;7658;51.456;7.622;2022-12-05T10:42:10;16.93;;;15.30;;
15114;SDS011;7658;51.456;7.622;2022-12-05T10:44:38;18.37;;;15.67;;
15114;SDS011;7658;51.456;7.622;2022-12-05T10:47:04;16.10;;;14.47;;
15114;SDS011;7658;51.456;7.622;2022-12-05T10:49:30;17.47;;;15.67;;
15114;SDS011;7658;51.456;7.622;2022-12-05T10:51:57;22.43;;;16.73;;
15114;SDS011;7658;51.456;7.622;2022-12-05T10:54:25;20.50;;;17.30;;
15114;SDS011;7658;51.456;7.622;2022-12-05T10:56:54;27.57;;;21.00;;
15114;SDS011;7658;51.456;7.622;2022-12-05T10:59:22;26.13;;;21.97;;
15114;SDS011;7658;51.456;7.622;2022-12-05T11:01:53;24.43;;;19.83;;
15114;SDS011;7658;51.456;7.622;2022-12-05T11:04:22;24.37;;;20.03;;
15114;SDS011;7658;51.456;7.622;2022-12-05T11:07:02;26.17;;;20.03;;
15114;SDS011;7658;51.456;7.622;2022-12-05T11:09:33;26.47;;;20.47;;
15114;SDS011;7658;51.456;7.622;2022-12-05T11:14:33;27.03;;;22.87;;
15114;SDS011;7658;51.456;7.622;2022-12-05T11:17:01;30.50;;;23.43;;
15114;SDS011;7658;51.456;7.622;2022-12-05T11:22:01;29.30;;;22.67;;
15114;SDS011;7658;51.456;7.622;2022-12-05T11:26:57;31.33;;;24.57;;
15114;SDS011;7658;51.456;7.622;2022-12-05T11:29:28;32.90;;;23.20;;
15114;SDS011;7658;51.456;7.622;2022-12-05T11:32:00;29.97;;;22.40;;
15114;SDS011;7658;51.456;7.622;2022-12-05T11:34:38;32.63;;;22.97;;
15114;SDS011;7658;51.456;7.622;2022-12-05T11:37:12;32.03;;;23.20;;
15114;SDS011;7658;51.456;7.622;2022-12-05T11:39:44;33.10;;;24.60;;
15114;SDS011;7658;51.456;7.622;2022-12-05T11:42:25;31.53;;;25.13;;
15114;SDS011;7658;51.456;7.622;2022-12-05T11:44:59;33.87;;;24.53;;
15114;SDS011;7658;51.456;7.622;2022-12-05T11:55:19;32.93;;;23.80;;
15114;SDS011;7658;51.456;7.622;2022-12-05T12:08:37;32.30;;;23.00;;
15114;SDS011;7658;51.456;7.622;2022-12-05T12:38:35;26.07;;;21.73;;
15114;SDS011;7658;51.456;7.622;2022-12-05T12:40:58;28.63;;;23.17;;
15114;SDS011;7658;51.456;7.622;2022-12-05T12:43:46;32.07;;;24.20;;
15114;SDS011;7658;51.456;7.622;2022-12-05T12:49:20;33.53;;;24.67;;
15114;SDS011;7658;51.456;7.622;2022-12-05T12:52:03;36.80;;;26.17;;
15114;SDS011;7658;51.456;7.622;2022-12-05T13:00:03;34.87;;;24.73;;
15114;SDS011;7658;51.456;7.622;2022-12-05T13:03:06;31.37;;;22.03;;
15114;SDS011;7658;51.456;7.622;2022-12-05T13:11:02;31.47;;;22.77;;
15114;SDS011;7658;51.456;7.622;2022-12-05T13:13:34;30.87;;;23.63;;
15114;SDS011;7658;51.456;7.622;2022-12-05T13:16:05;32.83;;;23.50;;
15114;SDS011;7658;51.456;7.622;2022-12-05T13:18:33;35.53;;;24.37;;
15114;SDS011;7658;51.456;7.622;2022-12-05T13:21:00;35.87;;;24.47;;
15114;SDS011;7658;51.456;7.622;2022-12-05T13:23:31;34.07;;;24.33;;
15114;SDS011;7658;51.456;7.622;2022-12-05T13:26:00;31.37;;;22.13;;
15114;SDS011;7658;51.456;7.622;2022-12-05T13:28:34;36.50;;;24.83;;
15114;SDS011;7658;51.456;7.622;2022-12-05T13:31:13;37.63;;;27.40;;
15114;SDS011;7658;51.456;7.622;2022-12-05T13:33:48;38.47;;;25.93;;
15114;SDS011;7658;51.456;7.622;2022-12-05T13:36:21;42.27;;;29.37;;
15114;SDS011;7658;51.456;7.622;2022-12-05T13:39:06;35.97;;;26.80;;
15114;SDS011;7658;51.456;7.622;2022-12-05T13:42:04;38.03;;;25.70;;
15114;SDS011;7658;51.456;7.622;2022-12-05T13:45:04;39.10;;;28.20;;
15114;SDS011;7658;51.456;7.622;2022-12-05T13:50:31;36.67;;;27.07;;
15114;SDS011;7658;51.456;7.622;2022-12-05T14:17:24;32.33;;;23.20;;
15114;SDS011;7658;51.456;7.622;2022-12-05T14:31:18;35.30;;;24.53;;
15114;SDS011;7658;51.456;7.622;2022-12-05T14:34:08;34.90;;;24.77;;
15114;SDS011;7658;51.456;7.622;2022-12-05T14:37:07;34.13;;;24.07;;
15114;SDS011;7658;51.456;7.622;2022-12-05T14:39:50;36.63;;;26.80;;
15114;SDS011;7658;51.456;7.622;2022-12-05T14:44:49;39.43;;;26.43;;
15114;SDS011;7658;51.456;7.622;2022-12-05T14:47:20;34.47;;;25.57;;
15114;SDS011;7658;51.456;7.622;2022-12-05T14:49:55;33.67;;;24.07;;
15114;SDS011;7658;51.456;7.622;2022-12-05T14:52:26;39.73;;;25.67;;
15114;SDS011;7658;51.456;7.622;2022-12-05T14:55:04;36.60;;;23.97;;
15114;SDS011;7658;51.456;7.622;2022-12-05T14:57:36;30.07;;;21.80;;
15114;SDS011;7658;51.456;7.622;2022-12-05T15:00:16;38.23;;;25.57;;
15114;SDS011;7658;51.456;7.622;2022-12-05T15:02:46;40.27;;;26.33;;
15114;SDS011;7658;51.456;7.622;2022-12-05T15:07:52;43.70;;;31.73;;
15114;SDS011;7658;51.456;7.622;2022-12-05T15:10:37;65.73;;;49.33;;
15114;SDS011;7658;51.456;7.622;2022-12-05T15:13:22;139.60;;;88.47;;
15114;SDS011;7658;51.456;7.622;2022-12-05T15:16:03;102.90;;;67.47;;
15114;SDS011;7658;51.456;7.622;2022-12-05T15:18:46;80.93;;;52.93;;
15114;SDS011;7658;51.456;7.622;2022-12-05T15:21:30;77.27;;;52.07;;
15114;SDS011;7658;51.456;7.622;2022-12-05T15:24:10;78.17;;;56.70;;
15114;SDS011;7658;51.456;7.622;2022-12-05T15:26:56;60.50;;;44.07;;
15114;SDS011;7658;51.456;7.622;2022-12-05T15:29:24;46.83;;;34.73;;
15114;SDS011;7658;51.456;7.622;2022-12-05T15:39:52;50.50;;;32.97;;
15114;SDS011;7658;51.456;7.622;2022-12-05T15:42:29;54.00;;;36.70;;
15114;SDS011;7658;51.456;7.622;2022-12-05T15:47:45;60.67;;;40.50;;
15114;SDS011;7658;51.456;7.622;2022-12-05T15:55:07;46.87;;;33.53;;
15114;SDS011;7658;51.456;7.622;2022-12-05T15:57:48;43.50;;;30.60;;
15114;SDS011;7658;51.456;7.622;2022-12-05T16:00:21;38.67;;;28.40;;
15114;SDS011;7658;51.456;7.622;2022-12-05T16:03:33;37.23;;;25.87;;
15114;SDS011;7658;51.456;7.622;2022-12-05T16:05:48;35.23;;;26.60;;
15114;SDS011;7658;51.456;7.622;2022-12-05T16:08:21;36.90;;;26.50;;
15114;SDS011;7658;51.456;7.622;2022-12-05T16:10:55;38.47;;;26.93;;
15114;SDS011;7658;51.456;7.622;2022-12-05T16:13:21;34.93;;;24.30;;
15114;SDS011;7658;51.456;7.622;2022-12-05T16:15:51;33.17;;;24.33;;
15114;SDS011;7658;51.456;7.622;2022-12-05T16:18:23;31.33;;;24.90;;
15114;SDS011;7658;51.456;7.622;2022-12-05T16:20:54;32.57;;;24.00;;
15114;SDS011;7658;51.456;7.622;2022-12-05T16:23:30;38.97;;;26.23;;
15114;SDS011;7658;51.456;7.622;2022-12-05T16:26:17;31.67;;;24.53;;
15114;SDS011;7658;51.456;7.622;2022-12-05T16:29:00;35.23;;;26.50;;
15114;SDS011;7658;51.456;7.622;2022-12-05T16:31:26;35.57;;;25.30;;
15114;SDS011;7658;51.456;7.622;2022-12-05T16:34:00;36.83;;;26.30;;
15114;SDS011;7658;51.456;7.622;2022-12-05T16:36:31;35.17;;;24.87;;
15114;SDS011;7658;51.456;7.622;2022-12-05T16:39:01;36.93;;;27.10;;
15114;SDS011;7658;51.456;7.622;2022-12-05T16:41:33;36.13;;;25.27;;
15114;SDS011;7658;51.456;7.622;2022-12-05T16:44:00;45.67;;;30.73;;
15114;SDS011;7658;51.456;7.622;2022-12-05T16:49:36;39.70;;;28.33;;
15114;SDS011;7658;51.456;7.622;2022-12-05T16:54:31;44.33;;;28.93;;
15114;SDS011;7658;51.456;7.622;2022-12-05T16:56:58;41.03;;;29.50;;
15114;SDS011;7658;51.456;7.622;2022-12-05T16:59:31;47.47;;;30.30;;
15114;SDS011;7658;51.456;7.622;2022-12-05T17:01:59;44.70;;;30.17;;
15114;SDS011;7658;51.456;7.622;2022-12-05T17:04:27;45.43;;;28.73;;
15114;SDS011;7658;51.456;7.622;2022-12-05T17:06:53;38.07;;;26.83;;
15114;SDS011;7658;51.456;7.622;2022-12-05T17:09:19;41.70;;;29.90;;
15114;SDS011;7658;51.456;7.622;2022-12-05T17:11:45;42.70;;;27.13;;
15114;SDS011;7658;51.456;7.622;2022-12-05T17:14:14;44.13;;;28.63;;
15114;SDS011;7658;51.456;7.622;2022-12-05T17:16:42;36.10;;;25.73;;
15114;SDS011;7658;51.456;7.622;2022-12-05T17:19:11;36.20;;;26.37;;
15114;SDS011;7658;51.456;7.622;2022-12-05T17:21:37;38.57;;;25.27;;
15114;SDS011;7658;51.456;7.622;2022-12-05T17:24:06;33.00;;;24.33;;
15114;SDS011;7658;51.456;7.622;2022-12-05T17:26:42;36.53;;;25.67;;
15114;SDS011;7658;51.456;7.622;2022-12-05T17:29:08;37.07;;;27.47;;
15114;SDS011;7658;51.456;7.622;2022-12-05T17:31:34;42.90;;;27.67;;
15114;SDS011;7658;51.456;7.622;2022-12-05T17:34:00;41.80;;;27.23;;
15114;SDS011;7658;51.456;7.622;2022-12-05T17:36:26;36.10;;;24.33;;
15114;SDS011;7658;51.456;7.622;2022-12-05T17:38:52;37.47;;;25.83;;
15114;SDS011;7658;51.456;7.622;2022-12-05T17:41:21;34.57;;;24.67;;
15114;SDS011;7658;51.456;7.622;2022-12-05T17:43:47;35.77;;;25.93;;
15114;SDS011;7658;51.456;7.622;2022-12-05T17:46:16;36.03;;;25.50;;
15114;SDS011;7658;51.456;7.622;2022-12-05T17:48:44;36.50;;;24.90;;
15114;SDS011;7658;51.456;7.622;2022-12-05T17:51:10;35.30;;;26.47;;
15114;SDS011;7658;51.456;7.622;2022-12-05T17:53:38;40.07;;;25.90;;
15114;SDS011;7658;51.456;7.622;2022-12-05T17:56:05;45.77;;;30.73;;
15114;SDS011;7658;51.456;7.622;2022-12-05T17:58:31;37.27;;;27.53;;
15114;SDS011;7658;51.456;7.622;2022-12-05T18:00:57;34.80;;;24.00;;
15114;SDS011;7658;51.456;7.622;2022-12-05T18:03:23;34.27;;;24.20;;
15114;SDS011;7658;51.456;7.622;2022-12-05T18:05:49;62.90;;;44.83;;
15114;SDS011;7658;51.456;7.622;2022-12-05T18:08:14;40.90;;;29.33;;
15114;SDS011;7658;51.456;7.622;2022-12-05T18:10:44;103.40;;;55.83;;
15114;SDS011;7658;51.456;7.622;2022-12-05T18:13:12;69.87;;;40.77;;
15114;SDS011;7658;51.456;7.622;2022-12-05T18:15:39;46.70;;;33.40;;